createdAt,value
2023-04-19T00:00:09.552Z,8.86
2023-04-19T00:03:17.610Z,9.01
2023-04-19T00:06:24.797Z,9.03
2023-04-19T00:09:32.491Z,9.14
2023-04-19T00:12:38.904Z,9.17
2023-04-19T00:15:45.316Z,9.26
2023-04-19T00:18:51.840Z,9.21
2023-04-19T00:21:58.470Z,9.01
2023-04-19T00:25:06.911Z,9.07
2023-04-19T00:28:13.087Z,9.00
2023-04-19T00:31:19.495Z,9.23
2023-04-19T00:34:26.231Z,9.03
2023-04-19T00:37:32.522Z,8.75
2023-04-19T00:40:40.116Z,8.88
2023-04-19T00:43:46.799Z,8.95
2023-04-19T00:46:53.303Z,8.93
2023-04-19T00:49:59.447Z,8.84
2023-04-19T00:53:06.174Z,8.58
2023-04-19T00:56:15.743Z,8.78
2023-04-19T00:59:21.938Z,8.90
2023-04-19T01:02:29.241Z,8.75
2023-04-19T01:05:35.352Z,8.74
2023-04-19T01:08:41.531Z,9.00
2023-04-19T01:11:48.660Z,8.98
2023-04-19T01:14:55.067Z,8.80
2023-04-19T01:18:02.329Z,8.85
2023-04-19T01:21:09.978Z,8.84
2023-04-19T01:24:17.649Z,8.85
2023-04-19T01:27:24.242Z,8.84
2023-04-19T01:30:30.133Z,8.73
2023-04-19T01:33:36.453Z,8.85
2023-04-19T01:36:42.795Z,8.81
2023-04-19T01:39:50.488Z,9.06
2023-04-19T01:42:56.506Z,8.94
2023-04-19T01:46:02.748Z,8.83
2023-04-19T01:49:08.695Z,8.83
2023-04-19T01:52:14.732Z,9.03
2023-04-19T01:55:22.373Z,9.03
2023-04-19T01:58:28.460Z,9.12
2023-04-19T02:01:34.556Z,9.09
2023-04-19T02:04:40.693Z,9.26
2023-04-19T02:07:46.460Z,9.35
2023-04-19T02:10:54.345Z,8.96
2023-04-19T02:14:00.314Z,9.11
2023-04-19T02:17:06.433Z,9.39
2023-04-19T02:20:12.811Z,9.04
2023-04-19T02:23:19.111Z,9.14
2023-04-19T02:26:26.937Z,9.33
2023-04-19T02:29:34.479Z,8.92
2023-04-19T02:32:40.940Z,8.72
2023-04-19T02:35:46.950Z,8.99
2023-04-19T02:38:52.925Z,9.13
2023-04-19T02:42:01.281Z,9.09
2023-04-19T02:45:09.241Z,9.15
2023-04-19T02:48:15.247Z,9.24
2023-04-19T02:51:21.314Z,9.31
2023-04-19T02:54:27.255Z,9.28
2023-04-19T02:57:34.901Z,9.27
2023-04-19T03:00:40.975Z,8.84
2023-04-19T03:03:47.080Z,9.09
2023-04-19T03:06:54.062Z,9.14
2023-04-19T03:10:00.362Z,9.16
2023-04-19T03:13:07.793Z,8.82
2023-04-19T03:16:14.110Z,8.99
2023-04-19T03:19:20.152Z,8.97
2023-04-19T03:22:26.285Z,8.79
2023-04-19T03:25:33.405Z,8.63
2023-04-19T03:28:41.368Z,8.81
2023-04-19T03:31:47.385Z,8.99
2023-04-19T03:34:53.607Z,8.59
2023-04-19T03:37:59.776Z,8.96
2023-04-19T03:41:06.404Z,8.85
2023-04-19T03:44:14.283Z,8.71
2023-04-19T03:47:20.970Z,8.75
2023-04-19T03:50:27.193Z,8.95
2023-04-19T03:53:33.453Z,9.01
2023-04-19T03:56:39.476Z,8.97
2023-04-19T03:59:46.580Z,8.88
2023-04-19T04:02:52.621Z,8.77
2023-04-19T04:05:58.861Z,8.91
2023-04-19T04:09:05.727Z,8.94
2023-04-19T04:12:13.106Z,8.96
2023-04-19T04:15:20.603Z,8.81
2023-04-19T04:18:27.211Z,8.77
2023-04-19T04:21:33.509Z,8.77
2023-04-19T04:24:41.573Z,8.93
2023-04-19T04:27:48.558Z,8.97
2023-04-19T04:30:57.538Z,8.86
2023-04-19T04:34:03.850Z,8.89
2023-04-19T04:37:10.524Z,8.74
2023-04-19T04:40:17.005Z,8.91
2023-04-19T04:43:24.136Z,8.84
2023-04-19T04:46:31.576Z,9.12
2023-04-19T04:49:37.716Z,8.64
2023-04-19T04:52:43.821Z,8.79
2023-04-19T04:55:50.106Z,8.82
2023-04-19T04:58:57.268Z,8.86
2023-04-19T05:02:04.914Z,8.94
2023-04-19T05:05:12.466Z,8.90
2023-04-19T05:08:18.839Z,9.23
2023-04-19T05:11:24.835Z,9.17
2023-04-19T05:14:30.816Z,9.12
2023-04-19T05:17:38.183Z,9.16
2023-04-19T05:20:46.876Z,9.27
2023-04-19T05:23:53.800Z,9.32
2023-04-19T05:26:59.890Z,9.30
2023-04-19T05:30:07.537Z,9.49
2023-04-19T05:33:14.760Z,9.49
2023-04-19T05:36:21.115Z,9.44
2023-04-19T05:39:27.676Z,9.48
2023-04-19T05:42:34.144Z,9.82
2023-04-19T05:45:40.681Z,9.95
2023-04-19T05:48:48.331Z,9.45
2023-04-19T05:51:55.647Z,9.74
2023-04-19T05:55:02.962Z,9.64
2023-04-19T05:58:09.387Z,9.74
2023-04-19T06:01:15.616Z,10.78
2023-04-19T06:04:24.073Z,9.92
2023-04-19T06:07:40.053Z,10.08
2023-04-19T06:10:54.978Z,9.82
2023-04-19T06:14:04.469Z,9.81
2023-04-19T06:17:11.022Z,9.73
2023-04-19T06:20:18.756Z,10.41
2023-04-19T06:23:25.609Z,9.97
2023-04-19T06:26:32.057Z,10.17
2023-04-19T06:29:38.432Z,10.53
2023-04-19T06:32:45.013Z,10.26
2023-04-19T06:35:52.731Z,10.34
2023-04-19T06:38:58.822Z,10.54
2023-04-19T06:42:05.630Z,11.14
2023-04-19T06:45:13.224Z,11.75
2023-04-19T06:48:19.521Z,11.23
2023-04-19T06:51:27.100Z,11.58
2023-04-19T06:54:33.464Z,11.75
2023-04-19T06:57:39.454Z,11.25
2023-04-19T07:00:45.506Z,11.81
2023-04-19T07:03:51.850Z,10.84
2023-04-19T07:07:00.384Z,11.53
2023-04-19T07:10:07.241Z,11.28
2023-04-19T07:13:13.377Z,10.88
2023-04-19T07:16:19.547Z,10.82
2023-04-19T07:19:26.340Z,11.18
2023-04-19T07:22:34.220Z,10.92
2023-04-19T07:25:40.577Z,11.77
2023-04-19T07:28:47.142Z,10.72
2023-04-19T07:31:55.495Z,11.54
2023-04-19T07:35:01.951Z,11.37
2023-04-19T07:38:09.377Z,11.77
2023-04-19T07:41:15.805Z,10.69
2023-04-19T07:44:21.966Z,11.86
2023-04-19T07:47:28.509Z,12.64
2023-04-19T07:50:34.650Z,12.31
2023-04-19T07:53:43.411Z,12.08
2023-04-19T07:56:49.632Z,12.77
2023-04-19T07:59:58.442Z,12.49
2023-04-19T08:03:05.551Z,12.20
2023-04-19T08:06:14.360Z,12.20
2023-04-19T08:09:22.285Z,11.87
2023-04-19T08:12:35.651Z,12.60
2023-04-19T08:18:54.227Z,13.85
2023-04-19T08:22:00.353Z,14.54
2023-04-19T08:25:09.543Z,13.88
2023-04-19T08:28:15.736Z,14.13
2023-04-19T08:31:22.262Z,15.61
2023-04-19T08:34:28.464Z,15.50
2023-04-19T08:37:34.605Z,16.68
2023-04-19T08:40:47.769Z,16.14
2023-04-19T08:43:56.323Z,16.78
2023-04-19T08:47:02.406Z,16.35
2023-04-19T08:50:24.025Z,15.43
2023-04-19T08:53:36.429Z,14.48
2023-04-19T08:56:44.306Z,16.28
2023-04-19T08:59:55.749Z,15.43
2023-04-19T09:03:02.092Z,15.94
2023-04-19T09:06:09.498Z,17.02
2023-04-19T09:12:28.400Z,15.52
2023-04-19T09:15:39.760Z,15.58
2023-04-19T09:19:02.368Z,14.67
2023-04-19T09:22:18.055Z,14.49
2023-04-19T09:28:37.689Z,15.25
2023-04-19T09:31:58.475Z,14.06
2023-04-19T09:35:04.878Z,14.77
2023-04-19T09:38:12.082Z,14.89
2023-04-19T09:41:18.966Z,15.99
2023-04-19T09:47:35.937Z,15.92
2023-04-19T09:51:02.310Z,15.89
2023-04-19T09:54:12.026Z,15.48
2023-04-19T09:57:18.245Z,16.18
2023-04-19T10:00:28.267Z,15.59
2023-04-19T10:03:36.260Z,15.60
2023-04-19T10:06:58.815Z,15.07
2023-04-19T10:10:19.654Z,15.97
2023-04-19T10:13:27.601Z,16.14
2023-04-19T10:16:35.974Z,14.70
2023-04-19T10:19:43.131Z,16.02
2023-04-19T10:22:49.376Z,16.22
2023-04-19T10:25:57.961Z,16.22
2023-04-19T10:29:03.982Z,16.73
2023-04-19T10:32:14.894Z,17.36
2023-04-19T10:35:23.297Z,17.23
2023-04-19T10:38:40.545Z,16.69
2023-04-19T10:41:59.505Z,16.20
2023-04-19T10:45:33.755Z,17.37
2023-04-19T10:48:44.244Z,17.28
2023-04-19T10:51:52.978Z,16.61
2023-04-19T10:54:58.853Z,16.73
2023-04-19T10:58:06.639Z,16.57
2023-04-19T11:01:33.986Z,16.50
2023-04-19T11:05:14.036Z,16.56
2023-04-19T11:08:24.637Z,16.97
2023-04-19T11:11:30.516Z,16.57
2023-04-19T11:14:38.150Z,16.36
2023-04-19T11:17:44.401Z,16.55
2023-04-19T11:20:55.871Z,16.79
2023-04-19T11:24:11.433Z,17.25
2023-04-19T11:27:17.445Z,17.62
2023-04-19T11:30:24.413Z,17.60
2023-04-19T11:33:34.711Z,18.10
2023-04-19T11:36:51.341Z,17.04
2023-04-19T11:39:57.271Z,16.99
2023-04-19T11:43:05.628Z,16.19
2023-04-19T11:46:13.515Z,16.39
2023-04-19T11:49:27.436Z,15.45
2023-04-19T11:52:36.979Z,15.54
2023-04-19T11:55:52.394Z,15.26
2023-04-19T11:58:59.659Z,15.44
2023-04-19T12:02:10.573Z,16.49
2023-04-19T12:05:17.783Z,17.56
2023-04-19T12:08:36.608Z,18.34
2023-04-19T12:11:46.948Z,17.36
2023-04-19T12:14:53.884Z,17.52
2023-04-19T12:18:02.127Z,17.41
2023-04-19T12:21:08.458Z,17.42
2023-04-19T12:24:17.979Z,16.88
2023-04-19T12:27:25.760Z,16.11
2023-04-19T12:30:32.363Z,16.69
2023-04-19T12:33:38.728Z,16.38
2023-04-19T12:36:45.119Z,16.34
2023-04-19T12:39:53.741Z,16.08
2023-04-19T12:43:01.974Z,15.73
2023-04-19T12:46:08.216Z,15.33
2023-04-19T12:49:14.479Z,15.29
2023-04-19T12:52:21.467Z,15.61
2023-04-19T12:55:29.214Z,15.46
2023-04-19T12:58:35.776Z,15.09
2023-04-19T13:01:42.248Z,15.03
2023-04-19T13:04:48.753Z,15.27
2023-04-19T13:07:54.828Z,14.61
2023-04-19T13:11:02.994Z,14.25
2023-04-19T13:14:09.094Z,14.91
2023-04-19T13:17:15.190Z,15.46
2023-04-19T13:20:21.302Z,15.26
2023-04-19T13:23:27.401Z,15.13
2023-04-19T13:26:35.698Z,14.61
2023-04-19T13:29:42.003Z,16.20
2023-04-19T13:32:48.034Z,14.54
2023-04-19T13:35:54.243Z,14.70
2023-04-19T13:39:00.894Z,14.62
2023-04-19T13:42:08.632Z,14.50
2023-04-19T13:45:15.803Z,15.17
2023-04-19T13:48:22.099Z,15.14
2023-04-19T13:51:38.801Z,14.22
2023-04-19T13:54:53.566Z,14.71
2023-04-19T13:58:01.139Z,14.42
2023-04-19T14:01:07.518Z,14.94
2023-04-19T14:04:13.916Z,14.92
2023-04-19T14:07:20.247Z,15.31
2023-04-19T14:10:26.130Z,14.93
2023-04-19T14:13:33.728Z,15.05
2023-04-19T14:16:39.663Z,15.39
2023-04-19T14:19:45.721Z,15.51
2023-04-19T14:22:52.095Z,15.31
2023-04-19T14:25:58.217Z,14.48
2023-04-19T14:29:06.648Z,14.48
2023-04-19T14:32:25.100Z,14.05
2023-04-19T14:35:32.184Z,14.70
2023-04-19T14:38:38.445Z,14.61
2023-04-19T14:41:44.449Z,14.31
2023-04-19T14:44:53.298Z,15.99
2023-04-19T14:47:59.452Z,15.26
2023-04-19T14:51:05.821Z,15.19
2023-04-19T14:54:11.800Z,14.33
2023-04-19T14:57:18.018Z,14.78
2023-04-19T15:00:25.760Z,14.21
2023-04-19T15:03:32.412Z,14.15
2023-04-19T15:06:38.845Z,14.25
2023-04-19T15:09:44.944Z,14.31
2023-04-19T15:12:50.896Z,14.19
2023-04-19T15:16:00.021Z,13.92
2023-04-19T15:19:07.705Z,13.54
2023-04-19T15:22:14.207Z,13.72
2023-04-19T15:25:20.268Z,13.84
2023-04-19T15:28:26.945Z,13.86
2023-04-19T15:31:35.044Z,13.66
2023-04-19T15:34:41.075Z,13.49
2023-04-19T15:37:48.601Z,13.10
2023-04-19T15:40:56.087Z,13.30
2023-04-19T15:44:02.671Z,12.84
2023-04-19T15:47:10.465Z,12.70
2023-04-19T15:50:16.673Z,12.47
2023-04-19T15:53:23.188Z,12.54
2023-04-19T15:56:29.246Z,12.56
2023-04-19T15:59:35.212Z,12.00
2023-04-19T16:02:42.803Z,11.71
2023-04-19T16:05:51.697Z,11.87
2023-04-19T16:08:57.955Z,11.58
2023-04-19T16:12:04.027Z,12.07
2023-04-19T16:15:10.781Z,12.12
2023-04-19T16:18:18.275Z,11.38
2023-04-19T16:21:24.369Z,11.92
2023-04-19T16:24:30.441Z,11.60
2023-04-19T16:27:36.739Z,11.23
2023-04-19T16:30:42.913Z,11.54
2023-04-19T16:33:50.456Z,11.43
2023-04-19T16:36:56.997Z,11.74
2023-04-19T16:40:07.177Z,11.68
2023-04-19T16:43:13.009Z,11.63
2023-04-19T16:46:19.253Z,11.51
2023-04-19T16:49:26.645Z,12.24
2023-04-19T16:52:35.356Z,11.84
2023-04-19T16:55:41.388Z,11.48
2023-04-19T16:58:47.539Z,11.30
2023-04-19T17:01:59.614Z,11.32
2023-04-19T17:05:10.033Z,11.35
2023-04-19T17:08:16.249Z,11.34
2023-04-19T17:11:22.241Z,11.27
2023-04-19T17:14:29.145Z,11.32
2023-04-19T17:17:35.228Z,11.33
2023-04-19T17:20:42.687Z,11.12
2023-04-19T17:23:49.090Z,10.84
2023-04-19T17:26:55.220Z,11.13
2023-04-19T17:30:01.426Z,11.23
2023-04-19T17:33:07.871Z,11.23
2023-04-19T17:36:15.932Z,11.27
2023-04-19T17:39:21.870Z,11.18
2023-04-19T17:42:28.031Z,11.18
2023-04-19T17:45:34.461Z,10.79
2023-04-19T17:48:40.894Z,10.65
2023-04-19T17:51:48.636Z,10.80
2023-04-19T17:54:54.969Z,10.62
2023-04-19T17:58:01.324Z,10.79
2023-04-19T18:01:08.970Z,10.71
2023-04-19T18:04:18.045Z,10.87
2023-04-19T18:07:26.028Z,10.85
2023-04-19T18:10:32.186Z,10.77
2023-04-19T18:13:38.141Z,10.75
2023-04-19T18:16:43.971Z,10.74
2023-04-19T18:19:50.085Z,10.75
2023-04-19T18:23:00.158Z,10.62
2023-04-19T18:26:06.483Z,10.48
2023-04-19T18:29:13.154Z,10.45
2023-04-19T18:32:19.236Z,10.04
2023-04-19T18:35:25.202Z,10.22
2023-04-19T18:38:33.123Z,10.21
2023-04-19T18:41:39.424Z,10.15
2023-04-19T18:44:53.522Z,10.13
2023-04-19T18:48:01.954Z,9.73
2023-04-19T18:51:10.275Z,9.85
2023-04-19T18:54:17.539Z,9.68
2023-04-19T18:57:27.069Z,9.76
2023-04-19T19:00:33.856Z,9.79
2023-04-19T19:04:07.832Z,9.97
2023-04-19T19:07:18.128Z,9.78
2023-04-19T19:10:58.858Z,9.53
2023-04-19T19:13:59.896Z,9.66
2023-04-19T19:17:07.180Z,9.71
2023-04-19T19:20:13.776Z,9.71
2023-04-19T19:23:20.558Z,9.74
2023-04-19T19:26:39.295Z,9.82
2023-04-19T19:29:46.997Z,9.72
2023-04-19T19:32:53.134Z,9.74
2023-04-19T19:35:59.557Z,9.74
2023-04-19T19:39:05.836Z,9.64
2023-04-19T19:42:14.282Z,9.68
2023-04-19T19:45:20.600Z,9.64
2023-04-19T19:48:29.925Z,9.73
2023-04-19T19:51:56.841Z,9.58
2023-04-19T19:55:02.816Z,9.51
2023-04-19T19:58:39.273Z,9.10
2023-04-19T20:01:37.511Z,8.96
2023-04-19T20:04:44.021Z,9.26
2023-04-19T20:10:59.876Z,9.16
2023-04-19T20:14:07.667Z,9.47
2023-04-19T20:17:13.902Z,9.37
2023-04-19T20:20:21.032Z,9.00
2023-04-19T20:23:27.290Z,9.15
2023-04-19T20:26:33.907Z,9.16
2023-04-19T20:29:41.275Z,9.36
2023-04-19T20:32:48.595Z,9.35
2023-04-19T20:35:55.546Z,8.97
2023-04-19T20:39:06.569Z,9.08
2023-04-19T20:42:12.965Z,8.98
2023-04-19T20:45:21.020Z,8.91
2023-04-19T20:48:27.326Z,9.07
2023-04-19T20:51:33.481Z,8.92
2023-04-19T20:54:39.401Z,8.86
2023-04-19T20:57:45.774Z,8.86
2023-04-19T21:00:53.294Z,8.77
2023-04-19T21:03:59.629Z,8.70
2023-04-19T21:07:06.029Z,8.85
2023-04-19T21:10:13.842Z,8.61
2023-04-19T21:13:20.090Z,8.65
2023-04-19T21:16:27.729Z,8.04
2023-04-19T21:19:34.073Z,8.32
2023-04-19T21:22:40.847Z,8.17
2023-04-19T21:25:46.743Z,8.22
2023-04-19T21:28:53.148Z,8.58
2023-04-19T21:32:00.960Z,8.68
2023-04-19T21:35:08.460Z,8.40
2023-04-19T21:38:14.858Z,8.51
2023-04-19T21:41:21.023Z,8.81
2023-04-19T21:44:27.341Z,8.36
2023-04-19T21:47:34.991Z,8.71
2023-04-19T21:50:41.675Z,8.58
2023-04-19T21:53:47.897Z,8.36
2023-04-19T21:56:53.831Z,8.62
2023-04-19T21:59:59.795Z,8.76
2023-04-19T22:03:07.730Z,8.50
2023-04-19T22:06:17.196Z,7.99
2023-04-19T22:09:23.065Z,8.13
2023-04-19T22:12:29.436Z,8.20
2023-04-19T22:15:35.558Z,7.98
2023-04-19T22:18:43.320Z,8.03
2023-04-19T22:21:49.307Z,8.29
2023-04-19T22:24:58.033Z,8.12
2023-04-19T22:28:07.234Z,7.78
2023-04-19T22:31:13.888Z,8.08
2023-04-19T22:34:21.175Z,8.44
2023-04-19T22:37:27.280Z,8.48
2023-04-19T22:40:33.540Z,8.15
2023-04-19T22:43:39.683Z,8.53
2023-04-19T22:46:45.540Z,8.47
2023-04-19T22:49:53.219Z,8.42
2023-04-19T22:52:59.423Z,8.36
2023-04-19T22:56:06.053Z,8.40
2023-04-19T22:59:13.491Z,8.20
2023-04-19T23:02:19.816Z,8.39
2023-04-19T23:05:28.003Z,8.17
2023-04-19T23:08:34.816Z,8.09
2023-04-19T23:11:40.956Z,7.83
2023-04-19T23:14:48.570Z,7.87
2023-04-19T23:17:54.941Z,7.77
2023-04-19T23:21:02.325Z,7.88
2023-04-19T23:24:08.421Z,7.84
2023-04-19T23:27:14.884Z,7.84
2023-04-19T23:30:21.430Z,7.78
2023-04-19T23:33:27.361Z,7.70
2023-04-19T23:36:34.735Z,7.41
2023-04-19T23:39:41.238Z,7.63
2023-04-19T23:42:47.246Z,8.04
2023-04-19T23:45:53.537Z,7.83
2023-04-19T23:48:59.500Z,7.70
2023-04-19T23:52:07.025Z,8.09
2023-04-19T23:55:13.784Z,7.92
2023-04-19T23:58:19.964Z,7.92
